Time;durP1;ratioP1;P1;durP2;ratioP2;P2;SDS_P1;SDS_P2;PMS_P1;PMS_P2;Temp;Humidity;BMP_temperature;BMP_pressure;BME280_temperature;BME280_humidity;BME280_pressure;Samples;Min_cycle;Max_cycle;Signal;HPM_P1;HPM_P2
2021/12/26 00:01:51;;;;;;;;;;;19.90;39.80;;;;;;5069976;28;19934;-55
2021/12/26 00:04:19;;;;;;;;;;;19.90;39.80;;;;;;5068685;28;20452;-55
2021/12/26 00:06:45;;;;;;;;;;;19.90;39.80;;;;;;5069133;28;20016;-53
2021/12/26 00:09:12;;;;;;;;;;;19.90;39.80;;;;;;5068563;28;20010;-53
2021/12/26 00:11:39;;;;;;;;;;;19.90;39.80;;;;;;5069504;28;20003;-52
2021/12/26 00:14:07;;;;;;;;;;;19.90;39.90;;;;;;5069691;28;20011;-54
2021/12/26 00:16:34;;;;;;;;;;;19.90;39.90;;;;;;5070291;28;20023;-55
2021/12/26 00:19:01;;;;;;;;;;;19.90;39.90;;;;;;5072418;28;19930;-55
2021/12/26 00:21:28;;;;;;;;;;;19.90;39.90;;;;;;5072946;28;19939;-55
2021/12/26 00:23:57;;;;;;;;;;;19.90;39.90;;;;;;5069077;28;19989;-51
2021/12/26 00:26:23;;;;;;;;;;;19.90;39.90;;;;;;5072833;28;20309;-49
2021/12/26 00:28:50;;;;;;;;;;;19.90;39.90;;;;;;5072701;28;20421;-54
2021/12/26 00:31:19;;;;;;;;;;;19.90;39.90;;;;;;5072778;28;19924;-55
2021/12/26 00:33:47;;;;;;;;;;;19.90;39.90;;;;;;5072743;28;19956;-55
2021/12/26 00:36:14;;;;;;;;;;;19.90;39.90;;;;;;5072696;28;19924;-54
2021/12/26 00:38:41;;;;;;;;;;;19.90;40.00;;;;;;5071085;28;19956;-54
2021/12/26 00:41:08;;;;;;;;;;;19.90;39.90;;;;;;5072681;28;20336;-57
2021/12/26 00:43:34;;;;;;;;;;;19.90;39.90;;;;;;5073768;28;20062;-54
2021/12/26 00:46:01;;;;;;;;;;;19.90;40.00;;;;;;5073736;28;20019;-55
2021/12/26 00:48:30;;;;;;;;;;;19.90;40.00;;;;;;5073483;28;20349;-53
2021/12/26 00:50:56;;;;;;;;;;;19.90;40.00;;;;;;5072334;28;19975;-53
2021/12/26 00:53:23;;;;;;;;;;;19.90;40.00;;;;;;5072092;28;20008;-55
2021/12/26 00:55:50;;;;;;;;;;;19.90;40.00;;;;;;5070973;28;19931;-54
2021/12/26 00:58:17;;;;;;;;;;;19.90;40.00;;;;;;5070917;28;20102;-53
2021/12/26 01:00:45;;;;;;;;;;;19.90;40.00;;;;;;5071391;28;20401;-53
2021/12/26 01:03:12;;;;;;;;;;;19.90;40.00;;;;;;5070371;28;20415;-54
2021/12/26 01:05:42;;;;;;;;;;;19.90;40.00;;;;;;5069212;28;20015;-53
2021/12/26 01:08:09;;;;;;;;;;;19.90;40.00;;;;;;5070477;28;20329;-56
2021/12/26 01:10:38;;;;;;;;;;;19.90;40.00;;;;;;5065703;28;19928;-56
2021/12/26 01:13:14;;;;;;;;;;;19.90;40.00;;;;;;5071220;28;19959;-54
2021/12/26 01:15:41;;;;;;;;;;;19.90;40.00;;;;;;5080406;28;20213;-52
2021/12/26 01:18:10;;;;;;;;;;;19.90;40.00;;;;;;5071963;28;19928;-56
2021/12/26 01:20:45;;;;;;;;;;;19.90;40.00;;;;;;5072817;28;19933;-52
2021/12/26 01:23:14;;;;;;;;;;;19.90;40.00;;;;;;5068892;28;19936;-55
2021/12/26 01:25:41;;;;;;;;;;;19.90;40.00;;;;;;5070379;28;19924;-52
2021/12/26 01:28:07;;;;;;;;;;;19.90;40.10;;;;;;5070351;28;19931;-53
2021/12/26 01:30:34;;;;;;;;;;;19.90;40.10;;;;;;5069328;28;19928;-56
2021/12/26 01:33:01;;;;;;;;;;;19.90;40.10;;;;;;5071896;28;19931;-54
2021/12/26 01:35:28;;;;;;;;;;;19.90;40.10;;;;;;5070672;28;19928;-55
2021/12/26 01:37:54;;;;;;;;;;;19.90;40.10;;;;;;5071328;28;20007;-54
2021/12/26 01:40:23;;;;;;;;;;;19.90;40.10;;;;;;5068205;28;19924;-55
2021/12/26 01:42:49;;;;;;;;;;;19.90;40.10;;;;;;5071625;28;20374;-52
2021/12/26 01:45:16;;;;;;;;;;;19.90;40.10;;;;;;5077279;28;19935;-53
2021/12/26 01:47:45;;;;;;;;;;;19.90;40.10;;;;;;5071133;28;20418;-55
2021/12/26 01:50:12;;;;;;;;;;;19.90;40.10;;;;;;5071194;28;19973;-51
2021/12/26 01:52:40;;;;;;;;;;;19.90;40.10;;;;;;5071609;28;20470;-51
2021/12/26 01:55:22;;;;;;;;;;;19.90;40.10;;;;;;5071363;28;19924;-57
2021/12/26 01:57:51;;;;;;;;;;;19.90;40.10;;;;;;5055458;28;19968;-54
2021/12/26 02:00:18;;;;;;;;;;;19.90;40.10;;;;;;5059291;28;19967;-53
2021/12/26 02:02:45;;;;;;;;;;;19.90;40.20;;;;;;5070026;28;20315;-55
2021/12/26 02:05:11;;;;;;;;;;;19.90;40.10;;;;;;5070604;28;19928;-55
2021/12/26 02:07:38;;;;;;;;;;;19.90;40.80;;;;;;5070363;28;19935;-55
2021/12/26 02:10:05;;;;;;;;;;;19.90;40.10;;;;;;5070698;28;20030;-54
2021/12/26 02:12:32;;;;;;;;;;;19.90;40.20;;;;;;5067843;28;19928;-55
2021/12/26 02:15:00;;;;;;;;;;;19.90;40.10;;;;;;5069210;28;20023;-54
2021/12/26 02:17:28;;;;;;;;;;;19.90;40.20;;;;;;5071416;28;20425;-56
2021/12/26 02:20:09;;;;;;;;;;;19.90;40.10;;;;;;5070282;28;19964;-57
2021/12/26 02:22:41;;;;;;;;;;;19.90;40.20;;;;;;5066679;28;19931;-54
2021/12/26 02:25:24;;;;;;;;;;;19.90;40.20;;;;;;5055208;28;19924;-55
2021/12/26 02:27:50;;;;;;;;;;;19.90;40.20;;;;;;5066299;28;19928;-52
2021/12/26 02:30:17;;;;;;;;;;;19.90;40.20;;;;;;5056253;28;19982;-52
2021/12/26 02:32:45;;;;;;;;;;;19.90;40.20;;;;;;5069934;28;19924;-52
2021/12/26 02:35:12;;;;;;;;;;;19.90;40.20;;;;;;5069779;28;19920;-53
2021/12/26 02:37:41;;;;;;;;;;;19.90;40.20;;;;;;5073585;28;19928;-54
2021/12/26 02:40:09;;;;;;;;;;;19.90;40.20;;;;;;5087881;28;19931;-55
2021/12/26 02:42:36;;;;;;;;;;;19.90;40.20;;;;;;5070631;28;19925;-53
2021/12/26 02:45:02;;;;;;;;;;;19.90;40.20;;;;;;5068750;28;19925;-54
2021/12/26 02:47:33;;;;;;;;;;;19.90;40.20;;;;;;5069068;28;19928;-51
2021/12/26 02:50:00;;;;;;;;;;;19.90;40.20;;;;;;5070223;28;20667;-50
2021/12/26 02:52:27;;;;;;;;;;;19.90;40.20;;;;;;5069826;28;19977;-53
2021/12/26 02:54:55;;;;;;;;;;;19.90;40.20;;;;;;5070419;28;19925;-55
2021/12/26 02:57:22;;;;;;;;;;;19.90;40.20;;;;;;5069495;28;20278;-55
2021/12/26 02:59:49;;;;;;;;;;;19.90;40.20;;;;;;5069306;28;19928;-55
2021/12/26 03:02:15;;;;;;;;;;;19.90;40.20;;;;;;5068963;28;20022;-52
2021/12/26 03:04:42;;;;;;;;;;;19.90;40.20;;;;;;5069297;28;19924;-55
2021/12/26 03:07:08;;;;;;;;;;;19.90;40.20;;;;;;5070462;28;20023;-53
2021/12/26 03:09:44;;;;;;;;;;;19.90;40.30;;;;;;5069723;28;19925;-55
2021/12/26 03:12:13;;;;;;;;;;;19.90;40.30;;;;;;5069672;28;19928;-52
2021/12/26 03:14:40;;;;;;;;;;;19.90;40.30;;;;;;5068335;28;20376;-54
2021/12/26 03:17:07;;;;;;;;;;;19.90;40.30;;;;;;5070012;28;19947;-53
2021/12/26 03:19:40;;;;;;;;;;;19.90;40.30;;;;;;5069541;28;19929;-51
2021/12/26 03:22:07;;;;;;;;;;;19.90;40.30;;;;;;5068767;28;19975;-53
2021/12/26 03:24:34;;;;;;;;;;;19.90;40.30;;;;;;5071202;28;20658;-50
2021/12/26 03:27:01;;;;;;;;;;;19.90;40.30;;;;;;5070263;28;20039;-50
2021/12/26 03:29:29;;;;;;;;;;;19.90;40.30;;;;;;5071235;28;19924;-55
2021/12/26 03:31:56;;;;;;;;;;;19.90;40.20;;;;;;5070899;28;19971;-54
2021/12/26 03:34:22;;;;;;;;;;;19.90;40.30;;;;;;5069635;28;19932;-52
2021/12/26 03:36:52;;;;;;;;;;;19.90;40.30;;;;;;5069847;28;19943;-57
2021/12/26 03:39:18;;;;;;;;;;;19.90;40.30;;;;;;5087248;28;19930;-55
2021/12/26 03:41:45;;;;;;;;;;;19.90;40.30;;;;;;5080708;28;19924;-56
2021/12/26 03:44:12;;;;;;;;;;;19.90;40.30;;;;;;5070264;28;19932;-53
2021/12/26 03:46:41;;;;;;;;;;;19.90;40.30;;;;;;5070882;28;19975;-55
2021/12/26 03:49:07;;;;;;;;;;;19.90;40.30;;;;;;5070089;28;20000;-55
2021/12/26 03:51:34;;;;;;;;;;;19.90;40.30;;;;;;5071758;28;20568;-51
2021/12/26 03:54:01;;;;;;;;;;;19.90;40.30;;;;;;5073718;28;19925;-53
2021/12/26 03:56:28;;;;;;;;;;;19.90;40.30;;;;;;5073356;28;19930;-56
2021/12/26 03:58:55;;;;;;;;;;;19.90;40.30;;;;;;5073773;28;19924;-54
2021/12/26 04:01:21;;;;;;;;;;;19.90;40.30;;;;;;5073360;28;19960;-55
2021/12/26 04:03:50;;;;;;;;;;;19.90;40.30;;;;;;5073444;28;20023;-53
2021/12/26 04:06:16;;;;;;;;;;;19.90;40.30;;;;;;5073457;28;20409;-52
2021/12/26 04:08:43;;;;;;;;;;;19.90;40.30;;;;;;5072983;28;19931;-51
2021/12/26 04:11:10;;;;;;;;;;;19.90;40.30;;;;;;5073454;28;20031;-54
2021/12/26 04:13:37;;;;;;;;;;;19.90;40.30;;;;;;5074103;28;19966;-56
2021/12/26 04:16:04;;;;;;;;;;;19.90;40.30;;;;;;5073415;28;19957;-54
2021/12/26 04:18:31;;;;;;;;;;;19.90;40.30;;;;;;5073141;28;19932;-57
2021/12/26 04:21:00;;;;;;;;;;;19.90;40.40;;;;;;5073146;28;19924;-54
2021/12/26 04:23:29;;;;;;;;;;;19.90;40.30;;;;;;5073032;28;20383;-52
2021/12/26 04:25:56;;;;;;;;;;;19.90;40.30;;;;;;5074155;28;19924;-53
2021/12/26 04:28:23;;;;;;;;;;;19.90;40.30;;;;;;5072361;28;20294;-56
2021/12/26 04:30:50;;;;;;;;;;;19.90;40.30;;;;;;5074139;28;20005;-56
2021/12/26 04:33:17;;;;;;;;;;;19.90;40.30;;;;;;5074210;28;19936;-54
2021/12/26 04:35:45;;;;;;;;;;;19.90;40.30;;;;;;5073215;28;19931;-52
2021/12/26 04:38:14;;;;;;;;;;;19.90;40.90;;;;;;5072406;28;19936;-52
2021/12/26 04:40:40;;;;;;;;;;;19.90;40.30;;;;;;5072775;28;19968;-52
2021/12/26 04:43:07;;;;;;;;;;;19.90;40.30;;;;;;5072513;28;20047;-56
2021/12/26 04:45:34;;;;;;;;;;;19.90;40.40;;;;;;5073032;28;20017;-57
2021/12/26 04:48:02;;;;;;;;;;;19.90;40.40;;;;;;5073390;28;19935;-56
2021/12/26 04:50:29;;;;;;;;;;;19.90;40.40;;;;;;5074136;28;20389;-53
2021/12/26 04:52:56;;;;;;;;;;;19.90;40.40;;;;;;5071720;28;20447;-53
2021/12/26 04:55:24;;;;;;;;;;;19.90;40.40;;;;;;5071939;28;19924;-56
2021/12/26 04:57:51;;;;;;;;;;;19.90;40.40;;;;;;5071519;28;19928;-50
2021/12/26 05:00:19;;;;;;;;;;;19.90;40.40;;;;;;5071981;28;20341;-52
2021/12/26 05:02:45;;;;;;;;;;;19.90;40.40;;;;;;5071412;28;19924;-48
2021/12/26 05:05:12;;;;;;;;;;;19.90;40.40;;;;;;5071867;28;20019;-51
2021/12/26 05:07:39;;;;;;;;;;;19.90;40.40;;;;;;5075610;28;19977;-49
2021/12/26 05:10:06;;;;;;;;;;;19.90;40.40;;;;;;5074522;28;20432;-53
2021/12/26 05:12:36;;;;;;;;;;;19.90;40.40;;;;;;5072003;28;19925;-53
2021/12/26 05:15:03;;;;;;;;;;;19.90;40.40;;;;;;5073267;28;19924;-49
2021/12/26 05:17:30;;;;;;;;;;;19.90;40.40;;;;;;5071909;28;19924;-52
2021/12/26 05:19:57;;;;;;;;;;;19.90;40.40;;;;;;5071754;28;19924;-50
2021/12/26 05:22:24;;;;;;;;;;;19.90;40.40;;;;;;5071444;28;19928;-50
2021/12/26 05:24:51;;;;;;;;;;;19.90;40.40;;;;;;5071612;28;20475;-50
2021/12/26 05:27:17;;;;;;;;;;;19.90;40.40;;;;;;5071570;28;19964;-50
2021/12/26 05:29:46;;;;;;;;;;;19.90;40.40;;;;;;5072584;28;19948;-53
2021/12/26 05:32:15;;;;;;;;;;;19.90;40.40;;;;;;5071427;28;19925;-53
2021/12/26 05:34:42;;;;;;;;;;;19.90;40.40;;;;;;5071246;28;20377;-48
2021/12/26 05:37:09;;;;;;;;;;;19.90;40.40;;;;;;5070751;28;20316;-56
2021/12/26 05:39:35;;;;;;;;;;;19.90;40.40;;;;;;5082232;28;19925;-50
2021/12/26 05:42:02;;;;;;;;;;;19.90;40.50;;;;;;5070825;28;19932;-49
2021/12/26 05:44:29;;;;;;;;;;;19.90;40.50;;;;;;5072618;28;20381;-50
2021/12/26 05:46:58;;;;;;;;;;;19.90;40.40;;;;;;5071288;28;20009;-50
2021/12/26 05:49:24;;;;;;;;;;;19.90;40.40;;;;;;5071247;28;20096;-50
2021/12/26 05:51:51;;;;;;;;;;;19.90;40.40;;;;;;5072366;28;19929;-51
2021/12/26 05:54:18;;;;;;;;;;;19.90;40.40;;;;;;5072272;28;19928;-49
2021/12/26 05:56:44;;;;;;;;;;;19.90;40.40;;;;;;5088233;28;19928;-49
2021/12/26 05:59:11;;;;;;;;;;;19.90;40.40;;;;;;5071088;28;20036;-52
2021/12/26 06:01:38;;;;;;;;;;;19.90;40.40;;;;;;5063922;28;19925;-50
2021/12/26 06:04:07;;;;;;;;;;;19.90;40.40;;;;;;5070188;28;19975;-49
2021/12/26 06:06:35;;;;;;;;;;;19.90;40.40;;;;;;5072213;28;20365;-48
2021/12/26 06:09:03;;;;;;;;;;;19.90;40.40;;;;;;5086070;28;19935;-49
2021/12/26 06:11:30;;;;;;;;;;;19.90;40.40;;;;;;5071738;28;19939;-54
2021/12/26 06:13:56;;;;;;;;;;;19.90;40.40;;;;;;5070835;28;20040;-48
2021/12/26 06:16:23;;;;;;;;;;;19.90;40.40;;;;;;5070295;28;20024;-51
2021/12/26 06:18:50;;;;;;;;;;;19.90;40.50;;;;;;5070796;28;19924;-49
2021/12/26 06:21:18;;;;;;;;;;;19.90;40.40;;;;;;5070104;28;19928;-49
2021/12/26 06:23:50;;;;;;;;;;;19.90;40.40;;;;;;5070269;28;20374;-51
2021/12/26 06:26:17;;;;;;;;;;;19.90;40.40;;;;;;5069785;28;20012;-48
2021/12/26 06:28:45;;;;;;;;;;;19.90;40.40;;;;;;5070299;28;19967;-56
2021/12/26 06:31:12;;;;;;;;;;;19.90;40.40;;;;;;5075423;28;19931;-55
2021/12/26 06:33:39;;;;;;;;;;;19.90;40.50;;;;;;5070245;28;20323;-50
2021/12/26 06:36:06;;;;;;;;;;;19.90;40.40;;;;;;5070076;28;19981;-54
2021/12/26 06:38:34;;;;;;;;;;;19.90;40.50;;;;;;5071419;28;19974;-49
2021/12/26 06:41:01;;;;;;;;;;;19.90;40.50;;;;;;5069685;28;19929;-50
2021/12/26 06:43:28;;;;;;;;;;;19.90;40.50;;;;;;5070017;28;19928;-51
2021/12/26 06:45:55;;;;;;;;;;;19.90;40.50;;;;;;5070083;28;19925;-53
2021/12/26 06:48:22;;;;;;;;;;;19.90;40.50;;;;;;5070274;28;20377;-52
2021/12/26 06:50:49;;;;;;;;;;;19.90;40.50;;;;;;5071387;28;20358;-53
2021/12/26 06:53:16;;;;;;;;;;;19.90;40.50;;;;;;5071650;28;19925;-49
2021/12/26 06:55:44;;;;;;;;;;;19.90;40.50;;;;;;5070198;28;20024;-49
2021/12/26 06:58:11;;;;;;;;;;;19.90;40.50;;;;;;5069940;28;19934;-49
2021/12/26 07:00:38;;;;;;;;;;;19.90;40.50;;;;;;5070464;28;20050;-52
2021/12/26 07:03:07;;;;;;;;;;;19.90;40.50;;;;;;5069888;28;19986;-49
2021/12/26 07:05:34;;;;;;;;;;;19.90;40.50;;;;;;5066110;28;19947;-50
2021/12/26 07:08:00;;;;;;;;;;;19.90;40.50;;;;;;5067464;28;19928;-52
2021/12/26 07:10:27;;;;;;;;;;;19.90;40.50;;;;;;5067863;28;19934;-54
2021/12/26 07:12:55;;;;;;;;;;;19.90;40.50;;;;;;5068851;28;20028;-49
2021/12/26 07:15:22;;;;;;;;;;;19.90;40.50;;;;;;5069484;28;19978;-55
2021/12/26 07:17:49;;;;;;;;;;;19.90;40.50;;;;;;5068550;28;19930;-54
2021/12/26 07:20:16;;;;;;;;;;;19.90;40.60;;;;;;5070351;28;19925;-52
2021/12/26 07:22:44;;;;;;;;;;;19.90;40.60;;;;;;5068868;28;20011;-52
2021/12/26 07:25:10;;;;;;;;;;;19.90;40.50;;;;;;5069307;28;19925;-49
2021/12/26 07:27:37;;;;;;;;;;;19.90;40.60;;;;;;5072155;28;19990;-53
2021/12/26 07:30:06;;;;;;;;;;;19.90;40.60;;;;;;5074082;28;20246;-50
2021/12/26 07:32:32;;;;;;;;;;;19.90;40.50;;;;;;5073396;28;19928;-52
2021/12/26 07:34:59;;;;;;;;;;;19.90;40.50;;;;;;5072811;28;19924;-48
2021/12/26 07:37:26;;;;;;;;;;;19.90;40.50;;;;;;5072693;28;20015;-50
2021/12/26 07:39:54;;;;;;;;;;;19.90;40.50;;;;;;5072757;28;19947;-52
2021/12/26 07:42:21;;;;;;;;;;;19.90;40.60;;;;;;5072839;28;20007;-50
2021/12/26 07:44:47;;;;;;;;;;;19.90;40.60;;;;;;5073140;28;20026;-49
2021/12/26 07:47:15;;;;;;;;;;;19.90;40.60;;;;;;5067352;28;20019;-54
2021/12/26 07:49:42;;;;;;;;;;;19.90;40.60;;;;;;5072887;28;19983;-53
2021/12/26 07:52:13;;;;;;;;;;;19.90;40.60;;;;;;5072859;28;20365;-53
2021/12/26 07:54:40;;;;;;;;;;;19.90;40.50;;;;;;5072475;28;20019;-53
2021/12/26 07:57:07;;;;;;;;;;;19.90;40.60;;;;;;5072773;28;20309;-55
2021/12/26 07:59:34;;;;;;;;;;;19.90;40.60;;;;;;5069636;28;19959;-52
2021/12/26 08:02:01;;;;;;;;;;;19.90;40.60;;;;;;5071619;28;20331;-51
2021/12/26 08:04:29;;;;;;;;;;;19.90;40.60;;;;;;5071929;28;19932;-49
2021/12/26 08:06:58;;;;;;;;;;;19.90;40.60;;;;;;5070068;28;20362;-49
2021/12/26 08:09:25;;;;;;;;;;;19.90;40.60;;;;;;5073199;28;19990;-52
2021/12/26 08:11:51;;;;;;;;;;;19.90;40.60;;;;;;5073094;28;19954;-50
2021/12/26 08:14:18;;;;;;;;;;;19.90;40.60;;;;;;5072769;28;20015;-52
2021/12/26 08:16:45;;;;;;;;;;;19.90;40.60;;;;;;5072973;28;19952;-51
2021/12/26 08:19:11;;;;;;;;;;;19.90;40.60;;;;;;5073173;28;20015;-53
2021/12/26 08:21:40;;;;;;;;;;;19.90;40.60;;;;;;5072831;28;19990;-51
2021/12/26 08:24:07;;;;;;;;;;;19.90;40.60;;;;;;5072438;28;20246;-54
2021/12/26 08:26:33;;;;;;;;;;;19.90;40.60;;;;;;5073926;28;19933;-51
2021/12/26 08:29:00;;;;;;;;;;;19.90;40.60;;;;;;5073138;28;19971;-52
2021/12/26 08:31:28;;;;;;;;;;;19.90;40.60;;;;;;5072975;28;20400;-53
2021/12/26 08:33:55;;;;;;;;;;;19.90;40.60;;;;;;5072470;28;20362;-50
2021/12/26 08:36:21;;;;;;;;;;;19.90;40.60;;;;;;5069901;28;19960;-55
2021/12/26 08:38:50;;;;;;;;;;;19.90;40.60;;;;;;5072886;28;19974;-52
2021/12/26 08:41:16;;;;;;;;;;;19.90;40.60;;;;;;5074124;28;19931;-51
2021/12/26 08:43:43;;;;;;;;;;;19.90;40.60;;;;;;5072363;28;20025;-49
2021/12/26 08:46:10;;;;;;;;;;;19.90;40.60;;;;;;5072638;28;19925;-50
2021/12/26 08:48:37;;;;;;;;;;;19.90;40.60;;;;;;5073367;28;20011;-51
2021/12/26 08:51:04;;;;;;;;;;;19.90;40.60;;;;;;5069184;28;19978;-55
2021/12/26 08:53:30;;;;;;;;;;;19.90;40.60;;;;;;5073191;28;19924;-52
2021/12/26 08:55:59;;;;;;;;;;;19.90;40.60;;;;;;5071929;28;20015;-50
2021/12/26 08:58:26;;;;;;;;;;;19.90;40.60;;;;;;5069099;28;19931;-55
2021/12/26 09:00:53;;;;;;;;;;;19.90;40.60;;;;;;5071138;28;19982;-53
2021/12/26 09:03:19;;;;;;;;;;;19.90;40.60;;;;;;5070865;28;19925;-55
2021/12/26 09:05:46;;;;;;;;;;;19.90;40.60;;;;;;5071137;28;19930;-53
2021/12/26 09:08:13;;;;;;;;;;;19.90;40.60;;;;;;5071922;28;19963;-55
2021/12/26 09:10:39;;;;;;;;;;;19.90;40.60;;;;;;5068298;28;19925;-58
2021/12/26 09:13:08;;;;;;;;;;;19.90;37.90;;;;;;5068577;28;20288;-61
2021/12/26 09:15:34;;;;;;;;;;;19.80;26.20;;;;;;5070630;28;19947;-54
2021/12/26 09:18:01;;;;;;;;;;;19.40;23.90;;;;;;5071053;28;20357;-52
2021/12/26 09:20:29;;;;;;;;;;;19.10;26.10;;;;;;5074258;28;20378;-51
2021/12/26 09:22:55;;;;;;;;;;;18.90;27.80;;;;;;5072935;28;19931;-51
2021/12/26 09:25:22;;;;;;;;;;;18.80;29.70;;;;;;5072864;28;19931;-50
2021/12/26 09:27:48;;;;;;;;;;;18.80;30.80;;;;;;5073252;28;19930;-52
2021/12/26 09:30:17;;;;;;;;;;;18.80;31.90;;;;;;5070978;28;20027;-55
2021/12/26 09:32:44;;;;;;;;;;;18.80;32.60;;;;;;5062667;28;19928;-53
2021/12/26 09:35:11;;;;;;;;;;;18.80;33.20;;;;;;5071731;28;19929;-55
2021/12/26 09:37:38;;;;;;;;;;;18.80;33.60;;;;;;5070716;28;19977;-54
2021/12/26 09:40:05;;;;;;;;;;;18.80;34.60;;;;;;5071024;28;19925;-53
2021/12/26 09:42:33;;;;;;;;;;;18.90;34.50;;;;;;5071289;28;19974;-52
2021/12/26 09:45:01;;;;;;;;;;;18.90;34.80;;;;;;5071292;28;20023;-55
2021/12/26 09:47:29;;;;;;;;;;;18.90;35.10;;;;;;5070922;28;19983;-55
2021/12/26 09:49:56;;;;;;;;;;;19.00;35.40;;;;;;5069790;28;19947;-50
2021/12/26 09:52:23;;;;;;;;;;;19.00;35.50;;;;;;5070675;28;19964;-53
2021/12/26 09:54:49;;;;;;;;;;;19.00;35.70;;;;;;5070460;28;20270;-55
2021/12/26 09:57:16;;;;;;;;;;;19.10;36.00;;;;;;5072218;28;19952;-54
2021/12/26 09:59:47;;;;;;;;;;;19.10;36.10;;;;;;5071232;28;19924;-57
2021/12/26 10:02:15;;;;;;;;;;;19.10;36.20;;;;;;5071438;28;19970;-53
2021/12/26 10:04:43;;;;;;;;;;;19.10;36.40;;;;;;5072087;28;19928;-54
2021/12/26 10:07:11;;;;;;;;;;;19.20;36.50;;;;;;5070898;28;20386;-57
2021/12/26 10:09:38;;;;;;;;;;;19.20;36.60;;;;;;5083313;28;20352;-56
2021/12/26 10:12:06;;;;;;;;;;;19.20;36.70;;;;;;5070786;28;20389;-55
2021/12/26 10:14:33;;;;;;;;;;;19.20;36.70;;;;;;5072030;28;19964;-54
2021/12/26 10:17:00;;;;;;;;;;;19.20;36.80;;;;;;5070141;28;19932;-55
2021/12/26 10:19:27;;;;;;;;;;;19.20;36.90;;;;;;5071531;28;19924;-49
2021/12/26 10:21:55;;;;;;;;;;;19.20;36.90;;;;;;5071187;28;19924;-53
2021/12/26 10:24:22;;;;;;;;;;;19.20;37.00;;;;;;5069812;28;19931;-53
2021/12/26 10:26:50;;;;;;;;;;;19.20;37.10;;;;;;5071688;28;19928;-57
2021/12/26 10:29:26;;;;;;;;;;;19.30;37.20;;;;;;5069742;28;19928;-53
2021/12/26 10:31:54;;;;;;;;;;;19.30;37.30;;;;;;5047453;28;20361;-55
2021/12/26 10:34:22;;;;;;;;;;;19.30;36.80;;;;;;5059391;28;20031;-53
2021/12/26 10:36:49;;;;;;;;;;;19.20;35.90;;;;;;5070095;28;19924;-53
2021/12/26 10:39:18;;;;;;;;;;;19.20;35.80;;;;;;5081373;28;20008;-52
2021/12/26 10:41:46;;;;;;;;;;;19.20;35.80;;;;;;5070433;28;19935;-53
2021/12/26 10:44:22;;;;;;;;;;;19.20;35.70;;;;;;5069799;28;20011;-52
2021/12/26 10:46:49;;;;;;;;;;;19.20;35.30;;;;;;5070854;28;20022;-51
2021/12/26 10:49:23;;;;;;;;;;;19.20;35.00;;;;;;5072047;28;19925;-58
2021/12/26 10:51:50;;;;;;;;;;;19.20;34.70;;;;;;5070154;28;19925;-50
2021/12/26 10:54:18;;;;;;;;;;;19.20;34.30;;;;;;5070871;28;19931;-55
2021/12/26 10:57:00;;;;;;;;;;;19.20;33.90;;;;;;5070367;28;19951;-50
2021/12/26 10:59:27;;;;;;;;;;;19.20;33.50;;;;;;5070697;28;19924;-49
2021/12/26 11:01:56;;;;;;;;;;;19.20;33.20;;;;;;5069775;28;20396;-50
2021/12/26 11:04:23;;;;;;;;;;;19.10;32.80;;;;;;5064499;28;20006;-48
2021/12/26 11:06:59;;;;;;;;;;;19.10;32.60;;;;;;5069399;28;19925;-51
2021/12/26 11:09:28;;;;;;;;;;;19.10;32.30;;;;;;5053293;28;19924;-49
2021/12/26 11:12:00;;;;;;;;;;;19.10;32.00;;;;;;5068855;28;20521;-52
2021/12/26 11:14:27;;;;;;;;;;;19.10;31.70;;;;;;5068385;28;19994;-49
2021/12/26 11:16:54;;;;;;;;;;;19.10;31.40;;;;;;5068822;28;20511;-51
2021/12/26 11:19:41;;;;;;;;;;;19.10;31.10;;;;;;5069846;28;19925;-49
2021/12/26 11:22:07;;;;;;;;;;;19.10;30.90;;;;;;5069423;28;20344;-55
2021/12/26 11:24:35;;;;;;;;;;;19.10;30.80;;;;;;5063347;28;20647;-54
2021/12/26 11:27:03;;;;;;;;;;;19.00;30.50;;;;;;5069222;28;20369;-54
2021/12/26 11:29:30;;;;;;;;;;;19.00;30.40;;;;;;5069282;28;20014;-52
2021/12/26 11:31:57;;;;;;;;;;;19.00;30.30;;;;;;5069232;28;19963;-49
2021/12/26 11:34:23;;;;;;;;;;;19.00;30.20;;;;;;5069139;28;19986;-48
2021/12/26 11:36:50;;;;;;;;;;;19.00;30.00;;;;;;5069384;28;19925;-54
2021/12/26 11:39:17;;;;;;;;;;;19.00;30.00;;;;;;5069286;28;20004;-55
2021/12/26 11:41:51;;;;;;;;;;;19.00;29.90;;;;;;5069608;28;19930;-54
2021/12/26 11:44:23;;;;;;;;;;;19.00;29.70;;;;;;5068841;28;19933;-48
2021/12/26 11:46:55;;;;;;;;;;;18.90;29.60;;;;;;5069392;28;19934;-52
2021/12/26 11:49:33;;;;;;;;;;;18.90;29.50;;;;;;5069117;28;19932;-49
2021/12/26 11:52:03;;;;;;;;;;;18.90;29.40;;;;;;5070357;28;19931;-54
2021/12/26 11:54:34;;;;;;;;;;;18.90;29.30;;;;;;5052917;28;19924;-49
2021/12/26 11:57:05;;;;;;;;;;;18.90;29.30;;;;;;5069170;28;20305;-49
2021/12/26 11:59:40;;;;;;;;;;;18.90;29.20;;;;;;5069093;28;20557;-50
2021/12/26 12:02:06;;;;;;;;;;;18.90;29.20;;;;;;5063319;28;19929;-50
2021/12/26 12:04:33;;;;;;;;;;;18.90;29.10;;;;;;5070035;28;19946;-50
2021/12/26 12:07:03;;;;;;;;;;;18.90;29.00;;;;;;5068183;28;19929;-52
2021/12/26 12:09:31;;;;;;;;;;;18.90;29.10;;;;;;5068395;28;19929;-52
2021/12/26 12:11:59;;;;;;;;;;;18.90;29.50;;;;;;5069419;28;19978;-53
2021/12/26 12:14:41;;;;;;;;;;;18.80;29.80;;;;;;5073207;28;19948;-52
2021/12/26 12:17:15;;;;;;;;;;;18.90;30.10;;;;;;5070299;28;19928;-50
2021/12/26 12:19:57;;;;;;;;;;;18.90;30.60;;;;;;5065051;28;19932;-50
2021/12/26 12:22:24;;;;;;;;;;;18.90;30.90;;;;;;5088395;28;19924;-53
2021/12/26 12:24:51;;;;;;;;;;;18.90;31.20;;;;;;5073567;28;19986;-50
2021/12/26 12:27:20;;;;;;;;;;;18.90;31.50;;;;;;5073260;28;19925;-53
2021/12/26 12:29:48;;;;;;;;;;;18.90;31.70;;;;;;5073310;28;20023;-52
2021/12/26 12:32:16;;;;;;;;;;;19.00;32.00;;;;;;5071585;28;20279;-50
2021/12/26 12:34:44;;;;;;;;;;;19.00;32.20;;;;;;5071559;28;20018;-53
2021/12/26 12:37:11;;;;;;;;;;;19.00;32.30;;;;;;5072157;28;20404;-53
2021/12/26 12:39:38;;;;;;;;;;;19.00;32.40;;;;;;5072922;28;21287;-50
2021/12/26 12:42:05;;;;;;;;;;;19.00;32.60;;;;;;5071938;28;20675;-50
2021/12/26 12:44:32;;;;;;;;;;;19.00;32.70;;;;;;5070060;28;19985;-53
2021/12/26 12:47:00;;;;;;;;;;;19.00;32.80;;;;;;5073134;28;20381;-48
2021/12/26 12:49:48;;;;;;;;;;;19.00;32.90;;;;;;5071258;28;19986;-52
2021/12/26 12:52:29;;;;;;;;;;;19.10;33.10;;;;;;5086475;28;19928;-55
2021/12/26 12:54:56;;;;;;;;;;;19.10;33.20;;;;;;5057665;28;19932;-54
2021/12/26 12:57:34;;;;;;;;;;;19.10;33.30;;;;;;5072877;28;19930;-50
2021/12/26 13:00:01;;;;;;;;;;;19.10;34.00;;;;;;5071457;28;19925;-52
2021/12/26 13:02:30;;;;;;;;;;;19.10;33.50;;;;;;5070809;28;19924;-52
2021/12/26 13:04:58;;;;;;;;;;;19.10;33.50;;;;;;5072638;28;19973;-52
2021/12/26 13:07:25;;;;;;;;;;;19.10;33.60;;;;;;5070810;28;20091;-52
2021/12/26 13:09:52;;;;;;;;;;;19.10;33.60;;;;;;5070903;28;20321;-53
2021/12/26 13:12:19;;;;;;;;;;;19.20;33.80;;;;;;5070366;28;19954;-55
2021/12/26 13:14:46;;;;;;;;;;;19.20;33.90;;;;;;5072332;28;20293;-55
2021/12/26 13:17:13;;;;;;;;;;;19.20;33.90;;;;;;5071121;28;20526;-53
2021/12/26 13:19:40;;;;;;;;;;;19.20;34.00;;;;;;5072871;28;19990;-54
2021/12/26 13:22:08;;;;;;;;;;;19.20;34.00;;;;;;5071236;28;19964;-55
2021/12/26 13:24:36;;;;;;;;;;;19.20;34.10;;;;;;5070807;28;20015;-52
2021/12/26 13:27:03;;;;;;;;;;;19.20;34.10;;;;;;5071367;28;19924;-50
2021/12/26 13:29:30;;;;;;;;;;;19.20;34.10;;;;;;5071025;28;19928;-52
2021/12/26 13:31:57;;;;;;;;;;;19.20;34.20;;;;;;5071034;28;20353;-50
2021/12/26 13:34:23;;;;;;;;;;;19.20;34.20;;;;;;5070726;28;19974;-53
2021/12/26 13:36:50;;;;;;;;;;;19.20;34.30;;;;;;5072299;28;19931;-53
2021/12/26 13:39:19;;;;;;;;;;;19.20;34.30;;;;;;5071087;28;19954;-51
2021/12/26 13:41:46;;;;;;;;;;;19.20;34.40;;;;;;5070831;28;19925;-53
2021/12/26 13:44:13;;;;;;;;;;;19.20;34.40;;;;;;5068554;28;20386;-53
2021/12/26 13:46:40;;;;;;;;;;;19.20;34.40;;;;;;5063482;28;19925;-55
2021/12/26 13:49:08;;;;;;;;;;;19.20;34.50;;;;;;5071619;28;19931;-52
2021/12/26 13:51:35;;;;;;;;;;;19.20;34.50;;;;;;5070230;28;20702;-50
2021/12/26 13:54:06;;;;;;;;;;;19.30;34.60;;;;;;5070859;28;19982;-50
2021/12/26 13:56:44;;;;;;;;;;;19.20;34.60;;;;;;5070923;28;19928;-53
2021/12/26 13:59:26;;;;;;;;;;;19.30;34.70;;;;;;5071866;28;19930;-55
2021/12/26 14:01:53;;;;;;;;;;;19.30;34.70;;;;;;5070591;28;20023;-53
2021/12/26 14:04:22;;;;;;;;;;;19.30;34.70;;;;;;5070252;28;19956;-51
2021/12/26 14:06:49;;;;;;;;;;;19.30;34.80;;;;;;5070179;28;19964;-52
2021/12/26 14:09:15;;;;;;;;;;;19.30;34.80;;;;;;5071509;28;20389;-48
2021/12/26 14:11:42;;;;;;;;;;;19.30;34.80;;;;;;5071403;28;20596;-50
2021/12/26 14:14:11;;;;;;;;;;;19.30;34.90;;;;;;5069567;28;20031;-50
2021/12/26 14:16:41;;;;;;;;;;;19.30;34.90;;;;;;5061083;28;19929;-48
2021/12/26 14:19:09;;;;;;;;;;;19.30;34.90;;;;;;5069608;28;19928;-52
2021/12/26 14:21:40;;;;;;;;;;;19.30;34.90;;;;;;5070009;28;19924;-49